createdAt,value
2022-12-07T04:00:31.184Z,5.80
2022-12-07T04:02:59.153Z,5.70
2022-12-07T04:05:27.380Z,5.60
2022-12-07T04:07:55.426Z,5.60
2022-12-07T04:10:25.399Z,5.60
2022-12-07T04:12:53.263Z,5.50
2022-12-07T04:15:21.108Z,5.50
2022-12-07T04:17:50.329Z,5.60
2022-12-07T04:20:18.341Z,5.60
2022-12-07T04:22:46.232Z,5.60
2022-12-07T04:25:14.157Z,5.60
2022-12-07T04:27:42.049Z,5.60
2022-12-07T04:30:10.855Z,5.60
2022-12-07T04:32:38.776Z,5.60
2022-12-07T04:35:08.924Z,5.70
2022-12-07T04:37:36.838Z,5.60
2022-12-07T04:40:05.582Z,5.70
2022-12-07T04:42:33.636Z,5.70
2022-12-07T04:45:01.641Z,5.60
2022-12-07T04:47:31.572Z,5.60
2022-12-07T04:49:59.644Z,5.60
2022-12-07T04:52:29.169Z,5.60
2022-12-07T04:54:57.031Z,5.50
2022-12-07T04:57:24.855Z,5.60
2022-12-07T04:59:52.761Z,5.60
2022-12-07T05:02:20.653Z,5.60
2022-12-07T05:04:48.518Z,5.60
2022-12-07T05:07:16.511Z,5.60
2022-12-07T05:09:45.784Z,5.70
2022-12-07T05:12:13.630Z,5.80
2022-12-07T05:14:41.508Z,5.80
2022-12-07T05:17:09.350Z,5.80
2022-12-07T05:19:37.221Z,5.80
2022-12-07T05:22:05.194Z,5.80
2022-12-07T05:24:33.102Z,5.80
2022-12-07T05:27:02.308Z,5.80
2022-12-07T05:29:30.225Z,5.80
2022-12-07T05:31:58.133Z,5.80
2022-12-07T05:34:27.222Z,5.90
2022-12-07T05:36:55.051Z,5.90
2022-12-07T05:39:22.962Z,5.90
2022-12-07T05:42:08.171Z,5.90
2022-12-07T05:44:38.441Z,5.90
2022-12-07T05:47:06.576Z,5.90
2022-12-07T05:49:34.600Z,5.90
2022-12-07T05:52:02.706Z,5.90
2022-12-07T05:54:30.580Z,5.90
2022-12-07T05:56:58.620Z,5.90
2022-12-07T05:59:25.850Z,6.00
2022-12-07T06:01:57.336Z,6.00
2022-12-07T06:04:26.624Z,6.00
2022-12-07T06:06:55.036Z,6.00
2022-12-07T06:09:24.308Z,6.00
2022-12-07T06:12:09.929Z,6.00
2022-12-07T06:14:38.242Z,5.90
2022-12-07T06:17:07.875Z,5.90
2022-12-07T06:19:36.151Z,5.90
2022-12-07T06:22:05.452Z,5.80
2022-12-07T06:24:34.158Z,5.80
2022-12-07T06:27:02.296Z,5.70
2022-12-07T06:29:30.140Z,5.70
2022-12-07T06:31:58.330Z,5.70
2022-12-07T06:34:28.142Z,5.70
2022-12-07T06:36:56.738Z,5.70
2022-12-07T06:39:26.661Z,5.70
2022-12-07T06:41:54.991Z,5.60
2022-12-07T06:44:24.093Z,5.70
2022-12-07T06:46:55.942Z,5.60
2022-12-07T06:49:36.166Z,5.60
2022-12-07T06:52:05.753Z,5.70
2022-12-07T06:54:33.607Z,5.60
2022-12-07T06:57:01.461Z,5.70
2022-12-07T06:59:29.300Z,5.60
2022-12-07T07:01:57.188Z,5.70
2022-12-07T07:04:25.848Z,5.70
2022-12-07T07:06:59.828Z,5.60
2022-12-07T07:09:29.276Z,5.70
2022-12-07T07:11:57.286Z,5.60
2022-12-07T07:14:25.230Z,5.60
2022-12-07T07:16:53.187Z,5.70
2022-12-07T07:19:22.301Z,5.70
2022-12-07T07:21:50.218Z,5.60
2022-12-07T07:24:27.090Z,5.60
2022-12-07T07:26:56.052Z,5.70
2022-12-07T07:29:23.876Z,5.70
2022-12-07T07:31:51.795Z,5.70
2022-12-07T07:34:20.852Z,5.80
2022-12-07T07:36:48.717Z,5.80
2022-12-07T07:39:16.952Z,5.90
2022-12-07T07:41:46.383Z,5.80
2022-12-07T07:44:18.745Z,5.80
2022-12-07T07:46:46.614Z,5.80
2022-12-07T07:49:14.660Z,5.80
2022-12-07T07:51:42.630Z,5.80
2022-12-07T07:54:10.489Z,5.90
2022-12-07T07:56:38.348Z,5.90
2022-12-07T07:59:09.151Z,5.90
2022-12-07T08:01:37.115Z,5.80
2022-12-07T08:04:06.281Z,5.80
2022-12-07T08:06:37.626Z,5.90
2022-12-07T08:09:06.661Z,5.90
2022-12-07T08:11:34.518Z,5.90
2022-12-07T08:14:02.487Z,5.90
2022-12-07T08:16:32.804Z,5.90
2022-12-07T08:19:00.682Z,5.90
2022-12-07T08:21:28.537Z,5.90
2022-12-07T08:23:58.742Z,5.90
2022-12-07T08:26:26.617Z,5.80
2022-12-07T08:28:55.197Z,5.80
2022-12-07T08:31:23.093Z,5.80
2022-12-07T08:33:52.383Z,5.90
2022-12-07T08:36:22.562Z,5.80
2022-12-07T08:39:29.377Z,5.90
2022-12-07T08:41:38.601Z,5.90
2022-12-07T08:44:06.904Z,6.00
2022-12-07T08:46:38.999Z,6.00
2022-12-07T08:49:13.321Z,5.90
2022-12-07T08:51:42.313Z,5.90
2022-12-07T08:54:14.722Z,6.00
2022-12-07T08:56:44.566Z,6.10
2022-12-07T08:59:14.524Z,6.20
2022-12-07T09:01:42.488Z,6.20
2022-12-07T09:04:11.983Z,6.10
2022-12-07T09:06:41.362Z,6.10
2022-12-07T09:09:14.971Z,6.20
2022-12-07T09:11:43.073Z,6.20
2022-12-07T09:14:10.905Z,6.30
2022-12-07T09:16:38.828Z,6.30
2022-12-07T09:19:06.780Z,6.30
2022-12-07T09:21:35.989Z,6.30
2022-12-07T09:24:04.033Z,6.30
2022-12-07T09:26:31.890Z,6.40
2022-12-07T09:28:59.874Z,6.40
2022-12-07T09:31:38.609Z,6.40
2022-12-07T09:34:08.247Z,6.30
2022-12-07T09:36:37.688Z,6.40
2022-12-07T09:39:06.486Z,6.40
2022-12-07T09:41:34.940Z,6.50
2022-12-07T09:44:13.574Z,6.50
2022-12-07T09:46:43.673Z,6.60
2022-12-07T09:49:15.679Z,6.70
2022-12-07T09:51:44.959Z,6.80
2022-12-07T09:54:15.916Z,6.80
2022-12-07T09:56:45.532Z,6.90
2022-12-07T09:59:18.516Z,6.80
2022-12-07T10:01:48.814Z,6.80
2022-12-07T10:04:21.904Z,6.90
2022-12-07T10:06:52.984Z,6.80
2022-12-07T10:09:22.504Z,6.80
2022-12-07T10:12:06.738Z,6.80
2022-12-07T10:15:06.086Z,6.80
2022-12-07T10:17:39.470Z,6.80
2022-12-07T10:20:26.278Z,6.80
2022-12-07T10:23:16.643Z,6.80
2022-12-07T10:25:44.579Z,6.80
2022-12-07T10:28:17.907Z,6.80
2022-12-07T10:30:51.527Z,6.80
2022-12-07T10:33:38.485Z,6.70
2022-12-07T10:36:20.499Z,6.80
2022-12-07T10:38:52.623Z,6.80
2022-12-07T10:41:21.023Z,6.80
2022-12-07T10:43:50.870Z,6.80
2022-12-07T10:46:53.702Z,6.90
2022-12-07T10:49:54.399Z,7.00
2022-12-07T10:52:36.141Z,7.00
2022-12-07T10:55:21.896Z,7.10
2022-12-07T10:58:06.451Z,7.20
2022-12-07T11:00:41.908Z,7.30
2022-12-07T11:03:33.178Z,7.40
2022-12-07T11:06:13.928Z,7.50
2022-12-07T11:08:52.402Z,7.60
2022-12-07T11:11:28.894Z,7.70
2022-12-07T11:14:05.309Z,7.70
2022-12-07T11:16:43.704Z,7.70
2022-12-07T11:19:28.471Z,7.80
2022-12-07T11:22:00.119Z,7.80
2022-12-07T11:24:34.297Z,7.80
2022-12-07T11:27:16.858Z,7.90
2022-12-07T11:30:12.335Z,8.00
2022-12-07T11:32:55.017Z,8.00
2022-12-07T11:35:36.558Z,8.10
2022-12-07T11:38:13.425Z,8.10
2022-12-07T11:40:45.173Z,8.10
2022-12-07T11:43:22.152Z,8.00
2022-12-07T11:45:59.197Z,7.90
2022-12-07T11:48:34.265Z,7.80
2022-12-07T11:51:04.213Z,7.70
2022-12-07T11:53:38.035Z,7.60
2022-12-07T11:56:10.524Z,7.40
2022-12-07T11:58:49.423Z,7.40
2022-12-07T12:01:31.240Z,7.30
2022-12-07T12:04:07.731Z,7.20
2022-12-07T12:06:36.913Z,7.30
2022-12-07T12:15:19.793Z,7.30
2022-12-07T12:18:08.306Z,7.20
2022-12-07T12:20:42.882Z,7.20
2022-12-07T12:23:15.981Z,7.20
2022-12-07T12:25:47.210Z,7.10
2022-12-07T12:28:29.149Z,7.10
2022-12-07T12:31:10.849Z,7.00
2022-12-07T12:33:40.532Z,7.00
2022-12-07T12:36:24.886Z,6.90
2022-12-07T12:39:09.115Z,7.00
2022-12-07T12:42:09.073Z,7.10
2022-12-07T12:45:19.668Z,7.10
2022-12-07T12:48:00.206Z,7.20
2022-12-07T12:50:31.310Z,7.20
2022-12-07T12:53:15.751Z,7.20
2022-12-07T12:56:15.583Z,7.30
2022-12-07T12:58:48.307Z,7.30
2022-12-07T13:01:47.076Z,7.30
2022-12-07T13:04:51.082Z,7.30
2022-12-07T13:08:01.593Z,7.40
2022-12-07T13:10:44.135Z,7.60
2022-12-07T13:13:32.144Z,7.80
2022-12-07T13:16:33.485Z,7.80
2022-12-07T13:19:01.392Z,7.80
2022-12-07T13:21:45.335Z,7.90
2022-12-07T13:24:15.602Z,8.00
2022-12-07T13:26:46.075Z,7.90
2022-12-07T13:29:16.173Z,7.90
2022-12-07T13:31:46.757Z,7.80
2022-12-07T13:34:32.983Z,7.90
2022-12-07T13:37:03.279Z,7.90
2022-12-07T13:39:31.296Z,7.80
2022-12-07T13:42:02.807Z,7.80
2022-12-07T13:44:40.674Z,7.80
2022-12-07T13:47:18.575Z,7.80
2022-12-07T13:49:53.849Z,7.80
2022-12-07T13:52:24.371Z,7.90
2022-12-07T13:54:59.275Z,8.00
2022-12-07T13:57:31.329Z,8.00
2022-12-07T14:00:00.020Z,8.00
2022-12-07T14:02:34.319Z,8.00
2022-12-07T14:05:10.749Z,8.00
2022-12-07T14:07:51.697Z,8.00
2022-12-07T14:10:27.952Z,7.90
2022-12-07T14:12:58.473Z,7.90
2022-12-07T14:15:29.618Z,7.90
2022-12-07T14:17:58.464Z,7.80
2022-12-07T14:20:33.759Z,7.80
2022-12-07T14:23:09.832Z,7.80
2022-12-07T14:25:50.810Z,7.80
2022-12-07T14:28:29.972Z,7.80
2022-12-07T14:30:57.875Z,7.80
2022-12-07T14:33:26.651Z,7.70
2022-12-07T14:35:56.058Z,7.80
2022-12-07T14:38:25.278Z,7.70
2022-12-07T14:40:54.440Z,7.70
2022-12-07T14:43:22.590Z,7.80
2022-12-07T14:45:51.836Z,7.70
2022-12-07T14:53:57.867Z,7.70
2022-12-07T14:56:25.879Z,7.70
2022-12-07T14:58:53.849Z,7.70
2022-12-07T15:01:23.119Z,7.50
2022-12-07T15:03:51.189Z,7.50
2022-12-07T15:06:20.117Z,7.30
2022-12-07T15:08:48.154Z,7.30
2022-12-07T15:11:16.910Z,7.10
2022-12-07T15:14:02.728Z,7.00
2022-12-07T15:16:52.500Z,7.00
2022-12-07T15:19:28.505Z,7.00
2022-12-07T15:21:57.034Z,7.00
2022-12-07T15:24:25.522Z,6.90
2022-12-07T15:26:53.508Z,6.90
2022-12-07T15:29:23.563Z,6.90
2022-12-07T15:31:56.953Z,6.90
2022-12-07T15:34:27.415Z,6.80
2022-12-07T15:36:55.405Z,6.80
2022-12-07T15:39:24.054Z,6.70
2022-12-07T15:41:52.021Z,6.70
2022-12-07T15:44:37.370Z,6.60
2022-12-07T15:47:07.929Z,6.50
2022-12-07T15:49:35.890Z,6.50
2022-12-07T15:52:03.879Z,6.50
2022-12-07T15:54:33.022Z,6.40
2022-12-07T15:57:00.947Z,6.40
2022-12-07T15:59:29.994Z,6.30
2022-12-07T16:01:57.954Z,6.30
2022-12-07T16:04:29.295Z,6.20
2022-12-07T16:06:57.225Z,6.20
2022-12-07T16:09:25.281Z,6.10
2022-12-07T16:11:53.223Z,6.10
2022-12-07T16:14:21.116Z,6.10
2022-12-07T16:16:49.511Z,6.00
2022-12-07T16:19:17.382Z,6.10
2022-12-07T16:21:47.338Z,6.10
2022-12-07T16:24:16.142Z,6.10
2022-12-07T16:26:49.613Z,6.10
2022-12-07T16:29:19.065Z,6.10
2022-12-07T16:31:47.239Z,6.10
2022-12-07T16:34:15.070Z,6.10
2022-12-07T16:39:32.136Z,6.10
2022-12-07T16:42:00.117Z,6.10
2022-12-07T16:44:28.226Z,6.10
2022-12-07T16:46:56.181Z,6.10
2022-12-07T16:49:24.967Z,6.10
2022-12-07T16:52:15.003Z,6.00
2022-12-07T16:54:42.545Z,5.90
2022-12-07T16:57:10.404Z,5.90
2022-12-07T16:59:38.397Z,5.90
2022-12-07T17:02:07.452Z,5.90
2022-12-07T17:04:35.754Z,5.80
2022-12-07T17:07:03.835Z,5.90
2022-12-07T17:09:32.181Z,5.90
2022-12-07T17:12:01.426Z,5.90
2022-12-07T17:14:46.721Z,5.90
2022-12-07T17:17:15.665Z,5.90
2022-12-07T17:19:43.561Z,5.90
2022-12-07T17:22:13.386Z,5.90
2022-12-07T17:24:41.869Z,5.90
2022-12-07T17:27:11.071Z,5.90
2022-12-07T17:29:40.052Z,5.90
2022-12-07T17:32:07.997Z,5.90
2022-12-07T17:34:37.714Z,5.90
2022-12-07T17:37:05.552Z,6.00
2022-12-07T17:39:33.692Z,6.00
2022-12-07T17:42:19.032Z,6.00
2022-12-07T17:44:48.352Z,6.00
2022-12-07T17:47:18.000Z,6.10
2022-12-07T17:49:46.633Z,6.10
2022-12-07T17:52:31.872Z,6.10
2022-12-07T17:54:59.714Z,6.10
2022-12-07T17:57:27.655Z,6.20
2022-12-07T17:59:57.378Z,6.20
2022-12-07T18:02:25.286Z,6.20
2022-12-07T18:04:53.635Z,6.20
2022-12-07T18:07:21.552Z,6.20
2022-12-07T18:09:49.460Z,6.20
2022-12-07T18:12:17.404Z,6.20
2022-12-07T18:14:45.285Z,6.20
2022-12-07T18:17:14.562Z,6.20
2022-12-07T18:19:42.441Z,6.20
2022-12-07T18:22:10.829Z,6.20
2022-12-07T18:24:39.201Z,6.20
2022-12-07T18:27:07.786Z,6.20
2022-12-07T18:29:36.864Z,6.20
2022-12-07T18:32:06.089Z,6.20
2022-12-07T18:34:35.442Z,6.20
2022-12-07T18:37:03.448Z,6.10
2022-12-07T18:39:33.992Z,6.10
2022-12-07T18:42:02.332Z,6.20
2022-12-07T18:44:30.368Z,6.10
2022-12-07T18:46:58.335Z,6.10
2022-12-07T18:49:26.213Z,6.10
2022-12-07T18:51:55.463Z,6.10
2022-12-07T18:54:24.351Z,6.10
2022-12-07T18:56:52.217Z,6.10
2022-12-07T18:59:37.533Z,6.10
2022-12-07T19:02:05.421Z,6.00
2022-12-07T19:04:33.623Z,6.00
2022-12-07T19:07:02.828Z,6.00
2022-12-07T19:09:33.938Z,5.90
2022-12-07T19:12:04.149Z,6.00
2022-12-07T19:14:34.609Z,5.90
2022-12-07T19:17:06.001Z,5.90
2022-12-07T19:19:39.286Z,5.80
2022-12-07T19:22:09.388Z,5.80
2022-12-07T19:24:37.475Z,5.80
2022-12-07T19:27:05.807Z,5.80
2022-12-07T19:29:34.276Z,5.80
2022-12-07T19:32:04.240Z,5.80
2022-12-07T19:34:32.501Z,5.90
2022-12-07T19:37:00.820Z,5.90
2022-12-07T19:39:30.798Z,5.90
2022-12-07T19:41:59.482Z,5.80
2022-12-07T19:44:29.944Z,5.80
2022-12-07T19:47:04.744Z,5.80
2022-12-07T19:49:34.513Z,5.80
2022-12-07T19:52:05.405Z,5.80
2022-12-07T19:54:35.193Z,5.80
2022-12-07T19:57:04.313Z,5.80
2022-12-07T19:59:32.745Z,5.80
2022-12-07T20:02:01.282Z,5.80
2022-12-07T20:04:32.420Z,5.80
2022-12-07T20:07:01.793Z,5.80
2022-12-07T20:09:30.066Z,5.80
2022-12-07T20:12:17.066Z,5.80
2022-12-07T20:14:44.986Z,5.90
2022-12-07T20:17:16.531Z,5.80
2022-12-07T20:19:44.464Z,5.90
2022-12-07T20:22:12.598Z,5.90
2022-12-07T20:24:40.661Z,6.00
2022-12-07T20:27:09.989Z,6.00
2022-12-07T20:29:37.919Z,6.00
2022-12-07T20:32:06.490Z,6.00
2022-12-07T20:34:34.333Z,6.00
2022-12-07T20:37:02.209Z,6.00
2022-12-07T20:39:30.736Z,6.10
2022-12-07T20:42:16.008Z,6.10
2022-12-07T20:44:47.166Z,6.10
2022-12-07T20:47:15.851Z,6.10
2022-12-07T20:49:43.816Z,6.10
2022-12-07T20:52:12.542Z,6.20
2022-12-07T20:54:40.537Z,6.20
2022-12-07T20:57:09.506Z,6.10
2022-12-07T20:59:41.520Z,6.00
2022-12-07T21:02:13.221Z,6.00
2022-12-07T21:04:41.654Z,6.00
2022-12-07T21:07:10.129Z,6.00
2022-12-07T21:09:38.186Z,6.00
2022-12-07T21:12:10.880Z,6.00
2022-12-07T21:14:40.614Z,6.00
2022-12-07T21:17:08.649Z,6.00
2022-12-07T21:19:38.599Z,6.10
2022-12-07T21:22:08.546Z,6.10
2022-12-07T21:24:38.813Z,6.10
2022-12-07T21:27:07.081Z,6.00
2022-12-07T21:29:43.708Z,6.00
2022-12-07T21:32:12.134Z,6.00
2022-12-07T21:34:41.534Z,6.00
2022-12-07T21:37:10.596Z,5.90
2022-12-07T21:39:38.450Z,5.90
2022-12-07T21:42:06.421Z,5.90
2022-12-07T21:44:34.560Z,5.90
2022-12-07T21:47:02.570Z,5.90
2022-12-07T21:49:30.704Z,5.90
2022-12-07T21:51:59.889Z,5.90
2022-12-07T21:54:28.053Z,5.90
2022-12-07T21:56:55.910Z,5.90
2022-12-07T21:59:23.978Z,5.80
2022-12-07T22:01:52.902Z,5.80
2022-12-07T22:04:23.279Z,5.80
2022-12-07T22:06:52.060Z,5.80
2022-12-07T22:09:23.163Z,5.80
2022-12-07T22:11:51.420Z,5.80
2022-12-07T22:14:37.117Z,5.90
2022-12-07T22:17:05.034Z,5.90
2022-12-07T22:19:33.949Z,5.90
2022-12-07T22:22:01.887Z,5.90
2022-12-07T22:24:31.319Z,5.90
2022-12-07T22:26:59.212Z,5.90
2022-12-07T22:29:28.209Z,5.90
2022-12-07T22:31:56.186Z,5.90
2022-12-07T22:34:24.304Z,5.80
2022-12-07T22:36:55.253Z,5.80
2022-12-07T22:39:23.088Z,5.80
2022-12-07T22:41:52.519Z,5.80
2022-12-07T22:44:20.357Z,5.80
2022-12-07T22:46:48.289Z,5.90
2022-12-07T22:49:16.212Z,5.90
2022-12-07T22:51:44.668Z,5.90
2022-12-07T22:54:17.008Z,5.90
2022-12-07T22:56:46.229Z,5.90
2022-12-07T22:59:15.501Z,5.90
